Time;durP1;ratioP1;P1;durP2;ratioP2;P2;SDS_P1;SDS_P2;PMS_P1;PMS_P2;Temp;Humidity;BMP_temperature;BMP_pressure;BME280_temperature;BME280_humidity;BME280_pressure;Samples;Min_cycle;Max_cycle;Signal;HPM_P1;HPM_P2
2023/07/17 00:02:02;;;;;;;6.70;4.43;;;;;;;-140.66;100.00;55571.53;5116026;28;20027;-74
2023/07/17 00:04:50;;;;;;;6.05;4.07;;;;;;;-140.66;100.00;55571.53;5101525;28;20151;-73
2023/07/17 00:07:41;;;;;;;7.43;4.30;;;;;;;-140.66;100.00;55571.53;5103183;28;20110;-74
2023/07/17 00:10:27;;;;;;;6.05;4.63;;;;;;;-140.66;100.00;55571.53;5115443;28;20368;-74
2023/07/17 00:13:12;;;;;;;4.82;4.32;;;;;;;-140.66;100.00;55571.53;5116141;28;20039;-74
2023/07/17 00:15:58;;;;;;;6.95;4.60;;;;;;;-140.66;100.00;55571.53;5117801;28;20054;-73
2023/07/17 00:18:44;;;;;;;4.95;4.00;;;;;;;-140.66;100.00;55571.53;5128679;28;20038;-74
2023/07/17 00:21:30;;;;;;;8.52;4.13;;;;;;;-140.66;100.00;55571.53;5116043;28;20055;-73
2023/07/17 00:24:15;;;;;;;5.57;4.30;;;;;;;-140.66;100.00;55571.53;5115773;28;20023;-74
2023/07/17 00:27:01;;;;;;;6.03;4.30;;;;;;;-140.66;100.00;55571.53;5132111;28;20019;-73
2023/07/17 00:29:47;;;;;;;5.53;4.93;;;;;;;-140.66;100.00;55571.53;5134085;28;20035;-73
2023/07/17 00:32:33;;;;;;;5.32;4.28;;;;;;;-140.66;100.00;55571.53;5115128;28;20024;-74
2023/07/17 00:35:19;;;;;;;5.43;4.50;;;;;;;-140.66;100.00;55571.53;5115519;28;20332;-74
2023/07/17 00:38:05;;;;;;;6.38;4.20;;;;;;;-140.66;100.00;55571.53;5116417;28;20031;-74
2023/07/17 00:40:50;;;;;;;6.70;4.90;;;;;;;-140.66;100.00;55571.53;5116410;28;20035;-74
2023/07/17 00:43:36;;;;;;;5.78;4.45;;;;;;;-140.66;100.00;55571.53;5101360;28;20024;-74
2023/07/17 00:46:22;;;;;;;7.28;4.18;;;;;;;-140.66;100.00;55571.53;5100697;28;20032;-74
2023/07/17 00:49:09;;;;;;;6.13;4.55;;;;;;;-140.66;100.00;55571.53;5115105;28;20038;-74
2023/07/17 00:51:56;;;;;;;6.63;4.28;;;;;;;-140.66;100.00;55571.53;5100809;28;20088;-74
2023/07/17 00:54:43;;;;;;;6.03;4.60;;;;;;;-140.66;100.00;55571.53;5116116;28;20463;-73
2023/07/17 00:57:29;;;;;;;5.25;4.53;;;;;;;-140.66;100.00;55571.53;5120526;28;20024;-72
2023/07/17 01:00:17;;;;;;;9.02;4.20;;;;;;;-140.66;100.00;55571.53;5126279;28;20028;-74
2023/07/17 01:03:03;;;;;;;6.50;4.30;;;;;;;-140.66;100.00;55571.53;5114007;28;20054;-74
2023/07/17 01:05:49;;;;;;;11.32;4.65;;;;;;;-140.66;100.00;55571.53;5115600;28;20032;-74
2023/07/17 01:08:35;;;;;;;5.78;4.38;;;;;;;-140.66;100.00;55571.53;5134929;28;20023;-72
2023/07/17 01:11:20;;;;;;;8.60;4.68;;;;;;;-140.66;100.00;55571.53;5100845;28;20023;-74
2023/07/17 01:14:13;;;;;;;7.47;4.25;;;;;;;-140.66;100.00;55571.53;5115623;28;20051;-74
2023/07/17 01:16:59;;;;;;;4.82;4.20;;;;;;;-140.66;100.00;55571.53;5115328;28;20031;-73
2023/07/17 01:19:45;;;;;;;5.95;4.32;;;;;;;-140.66;100.00;55571.53;5114528;28;20089;-75
2023/07/17 01:22:34;;;;;;;6.75;4.40;;;;;;;-140.66;100.00;55571.53;5114803;28;20423;-74
2023/07/17 01:25:20;;;;;;;7.53;4.50;;;;;;;-140.66;100.00;55571.53;5114394;28;20059;-74
2023/07/17 01:28:06;;;;;;;6.88;4.57;;;;;;;-140.66;100.00;55571.53;5114197;28;20051;-74
2023/07/17 01:30:52;;;;;;;7.30;5.00;;;;;;;-140.66;100.00;55571.53;5114949;28;20031;-74
2023/07/17 01:33:38;;;;;;;7.50;5.25;;;;;;;-140.66;100.00;55571.53;5114184;28;20062;-73
2023/07/17 01:36:25;;;;;;;6.18;5.20;;;;;;;-140.66;100.00;55571.53;5115368;28;20085;-73
2023/07/17 01:39:11;;;;;;;8.00;4.50;;;;;;;-140.66;100.00;55571.53;5114168;28;20070;-75
2023/07/17 01:41:57;;;;;;;5.50;4.68;;;;;;;-140.66;100.00;55571.53;5098799;28;20106;-74
2023/07/17 01:44:42;;;;;;;8.77;4.78;;;;;;;-140.66;100.00;55571.53;5099916;28;20027;-74
2023/07/17 01:47:28;;;;;;;9.30;4.97;;;;;;;-140.66;100.00;55571.53;5114946;28;20023;-74
2023/07/17 01:50:14;;;;;;;7.40;4.95;;;;;;;-140.66;100.00;55571.53;5114115;28;20020;-74
2023/07/17 01:52:59;;;;;;;8.20;4.47;;;;;;;-140.66;100.00;55571.53;5086250;28;20092;-73
2023/07/17 01:55:46;;;;;;;7.68;4.70;;;;;;;-140.66;100.00;55571.53;5099761;28;20027;-74
2023/07/17 01:58:32;;;;;;;7.07;4.75;;;;;;;-140.66;100.00;55571.53;5100105;28;20024;-74
2023/07/17 02:01:17;;;;;;;8.30;4.47;;;;;;;-140.66;100.00;55571.53;5114081;28;20024;-74
2023/07/17 02:04:03;;;;;;;9.13;4.82;;;;;;;-140.66;100.00;55571.53;5114232;28;20028;-73
2023/07/17 02:06:49;;;;;;;6.80;4.80;;;;;;;-140.66;100.00;55571.53;5113986;28;20020;-74
2023/07/17 02:09:34;;;;;;;8.15;5.43;;;;;;;-140.66;100.00;55571.53;5113867;28;20038;-73
2023/07/17 02:12:20;;;;;;;6.88;4.43;;;;;;;-140.66;100.00;55571.53;5114042;28;20034;-73
2023/07/17 02:15:07;;;;;;;7.80;4.82;;;;;;;-140.66;100.00;55571.53;5113655;28;20024;-73
2023/07/17 02:17:53;;;;;;;6.32;4.45;;;;;;;-140.66;100.00;55571.53;5114278;28;20027;-73
2023/07/17 02:20:38;;;;;;;7.63;4.57;;;;;;;-140.66;100.00;55571.53;5113853;28;20054;-74
2023/07/17 02:23:25;;;;;;;6.22;4.60;;;;;;;-140.66;100.00;55571.53;5099079;28;20088;-75
2023/07/17 02:26:11;;;;;;;5.47;4.60;;;;;;;-140.66;100.00;55571.53;5116662;28;20063;-73
2023/07/17 02:28:57;;;;;;;5.22;4.50;;;;;;;-140.66;100.00;55571.53;5118527;28;20031;-73
2023/07/17 02:31:43;;;;;;;5.53;4.43;;;;;;;-140.66;100.00;55571.53;5117576;28;20023;-74
2023/07/17 02:34:28;;;;;;;5.10;4.35;;;;;;;-140.66;100.00;55571.53;5118160;28;20454;-74
2023/07/17 02:37:14;;;;;;;6.20;4.80;;;;;;;-140.66;100.00;55571.53;5117854;28;20455;-74
2023/07/17 02:40:00;;;;;;;5.70;4.60;;;;;;;-140.66;100.00;55571.53;5117852;28;20432;-74
2023/07/17 02:42:46;;;;;;;7.72;4.47;;;;;;;-140.66;100.00;55571.53;5119343;28;20088;-74
2023/07/17 02:45:31;;;;;;;7.68;5.20;;;;;;;-140.66;100.00;55571.53;5118183;28;20031;-73
2023/07/17 02:48:17;;;;;;;5.95;4.75;;;;;;;-140.66;100.00;55571.53;5118008;28;20035;-74
2023/07/17 02:51:03;;;;;;;7.40;5.38;;;;;;;-140.66;100.00;55571.53;5117794;28;20027;-74
2023/07/17 02:53:49;;;;;;;9.02;5.45;;;;;;;-140.66;100.00;55571.53;5102288;28;20028;-73
2023/07/17 02:56:34;;;;;;;6.63;4.53;;;;;;;-140.66;100.00;55571.53;5118067;28;20023;-74
2023/07/17 02:59:20;;;;;;;7.72;4.80;;;;;;;-140.66;100.00;55571.53;5102782;28;20019;-74
2023/07/17 03:02:06;;;;;;;6.97;4.78;;;;;;;-140.66;100.00;55571.53;5117313;28;20020;-74
2023/07/17 03:04:52;;;;;;;7.40;4.72;;;;;;;-140.66;100.00;55571.53;5117857;28;20026;-74
2023/07/17 03:07:40;;;;;;;7.63;4.90;;;;;;;-140.66;100.00;55571.53;5102198;28;20433;-75
2023/07/17 03:10:27;;;;;;;5.18;4.30;;;;;;;-140.66;100.00;55571.53;5102442;28;20028;-74
2023/07/17 03:13:12;;;;;;;7.32;4.53;;;;;;;-140.66;100.00;55571.53;5103304;28;20061;-74
2023/07/17 03:15:58;;;;;;;6.05;4.90;;;;;;;-140.66;100.00;55571.53;5117330;28;20035;-75
2023/07/17 03:18:44;;;;;;;6.10;4.85;;;;;;;-140.66;100.00;55571.53;5102540;28;20439;-74
2023/07/17 03:21:30;;;;;;;4.88;4.10;;;;;;;-140.66;100.00;55571.53;5116612;28;20487;-74
2023/07/17 03:24:15;;;;;;;5.55;4.30;;;;;;;-140.66;100.00;55571.53;5102671;28;20364;-75
2023/07/17 03:27:01;;;;;;;6.80;4.47;;;;;;;-140.66;100.00;55571.53;5103064;28;20402;-74
2023/07/17 03:29:47;;;;;;;6.72;5.00;;;;;;;-140.66;100.00;55571.53;5117863;28;20027;-74
2023/07/17 03:32:33;;;;;;;8.23;4.47;;;;;;;-140.66;100.00;55571.53;5117011;28;20055;-75
2023/07/17 03:35:19;;;;;;;7.65;4.47;;;;;;;-140.66;100.00;55571.53;5118253;28;20031;-74
2023/07/17 03:38:05;;;;;;;7.65;4.53;;;;;;;-140.66;100.00;55571.53;5116004;28;20035;-74
2023/07/17 03:40:51;;;;;;;5.78;4.70;;;;;;;-140.66;100.00;55571.53;5116380;28;20024;-74
2023/07/17 03:43:36;;;;;;;7.45;4.60;;;;;;;-140.66;100.00;55571.53;5115855;28;20021;-74
2023/07/17 03:46:22;;;;;;;6.15;4.68;;;;;;;-140.66;100.00;55571.53;5117836;28;20028;-75
2023/07/17 03:49:08;;;;;;;8.25;5.00;;;;;;;-140.66;100.00;55571.53;5117685;28;20070;-74
2023/07/17 03:51:54;;;;;;;9.02;4.53;;;;;;;-140.66;100.00;55571.53;5116177;28;20020;-74
2023/07/17 03:54:39;;;;;;;10.20;4.88;;;;;;;-140.66;100.00;55571.53;5116732;28;20093;-74
2023/07/17 03:57:25;;;;;;;12.88;5.10;;;;;;;-140.66;100.00;55571.53;5103049;28;20120;-74
2023/07/17 04:00:15;;;;;;;9.43;5.00;;;;;;;-140.66;100.00;55571.53;5116746;28;20084;-74
2023/07/17 04:03:00;;;;;;;7.65;4.78;;;;;;;-140.66;100.00;55571.53;5116614;28;20023;-74
2023/07/17 04:05:47;;;;;;;7.15;4.93;;;;;;;-140.66;100.00;55571.53;5117256;28;20023;-74
2023/07/17 04:08:33;;;;;;;12.95;4.72;;;;;;;-140.66;100.00;55571.53;5088363;28;20077;-74
2023/07/17 04:11:19;;;;;;;18.35;5.15;;;;;;;-140.66;100.00;55571.53;5115749;28;20019;-74
2023/07/17 04:14:05;;;;;;;7.60;5.10;;;;;;;-140.66;100.00;55571.53;5116593;28;20058;-74
2023/07/17 04:16:51;;;;;;;10.48;4.82;;;;;;;-140.66;100.00;55571.53;5101657;28;20078;-75
2023/07/17 04:19:36;;;;;;;8.13;5.28;;;;;;;-140.66;100.00;55571.53;5115683;28;20059;-75
2023/07/17 04:22:22;;;;;;;11.75;4.97;;;;;;;-140.66;100.00;55571.53;5115803;28;20028;-74
2023/07/17 04:25:09;;;;;;;8.15;4.63;;;;;;;-140.66;100.00;55571.53;5115117;28;20336;-74
2023/07/17 04:27:55;;;;;;;10.98;4.63;;;;;;;-140.66;100.00;55571.53;5115207;28;20039;-74
2023/07/17 04:30:40;;;;;;;7.25;4.80;;;;;;;-140.66;100.00;55571.53;5116584;28;20040;-74
2023/07/17 04:33:26;;;;;;;6.68;4.70;;;;;;;-140.66;100.00;55571.53;5116469;28;20444;-74
2023/07/17 04:36:12;;;;;;;10.35;4.80;;;;;;;-140.66;100.00;55571.53;5116418;28;20028;-74
2023/07/17 04:38:57;;;;;;;11.20;5.22;;;;;;;-140.66;100.00;55571.53;5116419;28;20397;-73
2023/07/17 04:41:43;;;;;;;8.50;5.18;;;;;;;-140.66;100.00;55571.53;5115559;28;20462;-74
2023/07/17 04:44:29;;;;;;;7.00;5.13;;;;;;;-140.66;100.00;55571.53;5118611;28;20038;-74
2023/07/17 04:47:15;;;;;;;9.50;5.47;;;;;;;-140.66;100.00;55571.53;5136865;27;20023;-74
2023/07/17 04:50:00;;;;;;;11.10;5.05;;;;;;;-140.66;100.00;55571.53;5116025;28;20034;-75
2023/07/17 04:52:46;;;;;;;11.25;5.22;;;;;;;-140.66;100.00;55571.53;5116860;28;20027;-75
2023/07/17 04:55:32;;;;;;;8.48;5.25;;;;;;;-140.66;100.00;55571.53;5114130;28;20074;-75
2023/07/17 04:58:18;;;;;;;10.63;5.32;;;;;;;-140.66;100.00;55571.53;5114656;28;20028;-74
2023/07/17 05:01:05;;;;;;;6.10;5.00;;;;;;;-140.66;100.00;55571.53;5115957;28;20092;-75
2023/07/17 05:03:51;;;;;;;11.75;5.97;;;;;;;-140.66;100.00;55571.53;5115810;28;20024;-74
2023/07/17 05:06:37;;;;;;;11.80;5.30;;;;;;;-140.66;100.00;55571.53;5134589;28;20034;-74
2023/07/17 05:09:22;;;;;;;10.18;5.28;;;;;;;-140.66;100.00;55571.53;5123396;28;20028;-73
2023/07/17 05:12:08;;;;;;;14.70;5.55;;;;;;;-140.66;100.00;55571.53;5115119;28;20093;-74
2023/07/17 05:14:54;;;;;;;14.63;5.35;;;;;;;-140.66;100.00;55571.53;5113729;28;20059;-74
2023/07/17 05:17:39;;;;;;;10.52;5.38;;;;;;;-140.66;100.00;55571.53;5116524;28;20176;-74
2023/07/17 05:20:25;;;;;;;8.88;5.10;;;;;;;-140.66;100.00;55571.53;5114634;28;20043;-76
2023/07/17 05:23:12;;;;;;;8.27;5.38;;;;;;;-140.66;100.00;55571.53;5114885;28;20351;-74
2023/07/17 05:26:01;;;;;;;8.85;5.13;;;;;;;-140.66;100.00;55571.53;5114787;28;20027;-75
2023/07/17 05:28:47;;;;;;;10.50;5.18;;;;;;;-140.66;100.00;55571.53;5114661;28;20030;-74
2023/07/17 05:31:33;;;;;;;6.07;5.32;;;;;;;-140.66;100.00;55571.53;5114771;28;20056;-75
2023/07/17 05:34:19;;;;;;;11.05;5.65;;;;;;;-140.66;100.00;55571.53;5115533;28;20069;-74
2023/07/17 05:37:05;;;;;;;14.70;6.10;;;;;;;-140.66;100.00;55571.53;5115335;28;20401;-74
2023/07/17 05:39:50;;;;;;;15.93;5.70;;;;;;;-140.66;100.00;55571.53;5114127;28;20051;-75
2023/07/17 05:42:36;;;;;;;15.52;5.93;;;;;;;-140.66;100.00;55571.53;5113310;28;20108;-75
2023/07/17 05:45:22;;;;;;;14.48;5.28;;;;;;;-140.66;100.00;55571.53;5115311;28;20072;-74
2023/07/17 05:48:08;;;;;;;10.18;5.65;;;;;;;-140.66;100.00;55571.53;5114191;28;20020;-73
2023/07/17 05:50:53;;;;;;;9.55;5.70;;;;;;;-140.66;100.00;55571.53;5100121;28;20027;-75
2023/07/17 05:53:39;;;;;;;8.80;5.78;;;;;;;-140.66;100.00;55571.53;5101348;28;20058;-75
2023/07/17 05:56:25;;;;;;;11.25;5.60;;;;;;;-140.66;100.00;55571.53;5101101;28;20031;-75
2023/07/17 05:59:11;;;;;;;7.80;5.40;;;;;;;-140.66;100.00;55571.53;5114606;28;20027;-74
2023/07/17 06:01:56;;;;;;;10.70;6.30;;;;;;;-140.66;100.00;55571.53;5113973;28;20043;-74
2023/07/17 06:04:42;;;;;;;9.18;5.93;;;;;;;-140.66;100.00;55571.53;5113755;28;20026;-74
2023/07/17 06:07:29;;;;;;;10.13;6.10;;;;;;;-140.66;100.00;55571.53;5098474;28;20059;-74
2023/07/17 06:10:15;;;;;;;7.78;5.93;;;;;;;-140.66;100.00;55571.53;5114398;28;20118;-74
2023/07/17 06:13:01;;;;;;;11.80;6.13;;;;;;;-140.66;100.00;55571.53;5099760;28;20128;-74
2023/07/17 06:15:47;;;;;;;14.20;6.22;;;;;;;-140.66;100.00;55571.53;5113813;28;20036;-74
2023/07/17 06:18:33;;;;;;;10.25;6.20;;;;;;;-140.66;100.00;55571.53;5114755;28;20059;-75
2023/07/17 06:21:19;;;;;;;10.32;6.07;;;;;;;-140.66;100.00;55571.53;5099291;28;20474;-74
2023/07/17 06:24:08;;;;;;;9.07;5.70;;;;;;;-140.66;100.00;55571.53;5114199;28;20023;-75
2023/07/17 06:26:53;;;;;;;9.68;6.53;;;;;;;-140.66;100.00;55571.53;5113363;28;20467;-75
2023/07/17 06:29:39;;;;;;;8.85;5.93;;;;;;;-140.66;100.00;55571.53;5114526;28;20027;-75
2023/07/17 06:32:25;;;;;;;12.30;6.75;;;;;;;-140.66;100.00;55571.53;5114298;28;20455;-74
2023/07/17 06:35:11;;;;;;;8.73;6.07;;;;;;;-140.66;100.00;55571.53;5100195;28;20035;-74
2023/07/17 06:37:57;;;;;;;7.35;5.85;;;;;;;-140.66;100.00;55571.53;5099422;28;20470;-73
2023/07/17 06:40:42;;;;;;;11.43;6.63;;;;;;;-140.66;100.00;55571.53;5100147;28;20470;-76
2023/07/17 06:43:28;;;;;;;8.48;6.38;;;;;;;-140.66;100.00;55571.53;5113781;28;20024;-74
2023/07/17 06:46:16;;;;;;;7.82;6.43;;;;;;;-140.66;100.00;55571.53;5114182;28;20046;-75
2023/07/17 06:49:02;;;;;;;9.10;6.88;;;;;;;-140.66;100.00;55571.53;5114479;28;20023;-74
2023/07/17 06:51:48;;;;;;;9.05;6.72;;;;;;;-140.66;100.00;55571.53;5114588;28;20028;-74
2023/07/17 06:54:34;;;;;;;10.18;7.10;;;;;;;-140.66;100.00;55571.53;5114680;28;20024;-73
2023/07/17 06:57:20;;;;;;;10.18;6.78;;;;;;;-140.66;100.00;55571.53;5113387;28;20400;-74
2023/07/17 07:00:06;;;;;;;10.90;6.95;;;;;;;-140.66;100.00;55571.53;5113609;28;20051;-74
2023/07/17 07:02:53;;;;;;;9.32;7.05;;;;;;;-140.66;100.00;55571.53;5113969;28;20027;-75
2023/07/17 07:05:39;;;;;;;9.90;6.50;;;;;;;-140.66;100.00;55571.53;5113671;28;20501;-74
2023/07/17 07:08:26;;;;;;;9.13;6.45;;;;;;;-140.66;100.00;55571.53;5116888;28;20105;-74
2023/07/17 07:11:12;;;;;;;9.02;6.78;;;;;;;-140.66;100.00;55571.53;5114552;28;20032;-74
2023/07/17 07:13:58;;;;;;;13.75;6.57;;;;;;;-140.66;100.00;55571.53;5117524;28;20042;-74
2023/07/17 07:16:43;;;;;;;8.95;6.47;;;;;;;-140.66;100.00;55571.53;5105143;28;20032;-75
2023/07/17 07:19:29;;;;;;;15.30;6.43;;;;;;;-140.66;100.00;55571.53;5117894;28;20038;-74
2023/07/17 07:22:15;;;;;;;9.35;6.30;;;;;;;-140.66;100.00;55571.53;5119794;28;20137;-74
2023/07/17 07:25:00;;;;;;;9.88;6.47;;;;;;;-140.66;100.00;55571.53;5121838;28;20019;-74
2023/07/17 07:27:46;;;;;;;8.25;6.85;;;;;;;-140.66;100.00;55571.53;5122420;28;20121;-74
2023/07/17 07:30:35;;;;;;;9.13;6.82;;;;;;;-140.66;100.00;55571.53;5119145;28;20023;-73
2023/07/17 07:33:21;;;;;;;8.30;6.13;;;;;;;-140.66;100.00;55571.53;5117249;28;20092;-74
2023/07/17 07:36:06;;;;;;;7.18;6.47;;;;;;;-140.66;100.00;55571.53;5117864;28;20069;-74
2023/07/17 07:38:52;;;;;;;11.05;6.93;;;;;;;-140.66;100.00;55571.53;5117811;28;20019;-74
2023/07/17 07:41:38;;;;;;;8.07;6.40;;;;;;;-140.66;100.00;55571.53;5103332;28;20023;-74
2023/07/17 07:44:24;;;;;;;11.40;6.93;;;;;;;-140.66;100.00;55571.53;5132752;28;20504;-74
2023/07/17 07:47:10;;;;;;;10.02;6.28;;;;;;;-140.66;100.00;55571.53;5116860;28;20039;-74
2023/07/17 07:49:56;;;;;;;8.48;7.05;;;;;;;-140.66;100.00;55571.53;5117237;28;20067;-74
2023/07/17 07:52:41;;;;;;;7.43;6.18;;;;;;;-140.66;100.00;55571.53;5116275;28;20055;-74
2023/07/17 07:55:27;;;;;;;9.13;6.60;;;;;;;-140.66;100.00;55571.53;5115841;28;20028;-74
2023/07/17 07:58:13;;;;;;;10.35;6.35;;;;;;;-140.66;100.00;55571.53;5102494;28;20107;-74
2023/07/17 08:00:58;;;;;;;9.63;6.55;;;;;;;-140.66;100.00;55571.53;5116657;28;20148;-74
2023/07/17 08:03:44;;;;;;;9.05;7.38;;;;;;;-140.66;100.00;55571.53;5115987;28;20034;-75
2023/07/17 08:06:30;;;;;;;9.25;7.00;;;;;;;-140.66;100.00;55571.53;5101249;28;20470;-74
2023/07/17 08:09:15;;;;;;;11.20;7.63;;;;;;;-140.66;100.00;55571.53;5116506;28;20031;-74
2023/07/17 08:12:01;;;;;;;13.85;7.78;;;;;;;-140.66;100.00;55571.53;5115772;28;20023;-74
2023/07/17 08:14:49;;;;;;;9.95;7.10;;;;;;;-140.66;100.00;55571.53;5116549;28;20036;-74
2023/07/17 08:17:35;;;;;;;14.65;7.55;;;;;;;-140.66;100.00;55571.53;5116378;28;20355;-74
2023/07/17 08:20:20;;;;;;;13.98;7.65;;;;;;;-140.66;100.00;55571.53;5116244;28;20052;-74
2023/07/17 08:23:06;;;;;;;11.38;7.95;;;;;;;-140.66;100.00;55571.53;5100094;28;20209;-74
2023/07/17 08:25:52;;;;;;;13.15;8.20;;;;;;;-140.66;100.00;55571.53;5116312;28;20024;-74
2023/07/17 08:28:38;;;;;;;13.55;8.23;;;;;;;-140.66;100.00;55571.53;5118830;28;20432;-74
2023/07/17 08:31:23;;;;;;;17.33;8.30;;;;;;;-140.66;100.00;55571.53;5115330;28;20028;-74
2023/07/17 08:34:09;;;;;;;11.50;7.68;;;;;;;-140.66;100.00;55571.53;5117722;28;20031;-75
2023/07/17 08:36:55;;;;;;;12.98;7.93;;;;;;;-140.66;100.00;55571.53;5117206;28;20050;-74
2023/07/17 08:39:40;;;;;;;10.93;8.05;;;;;;;-140.66;100.00;55571.53;5118916;28;20031;-74
2023/07/17 08:42:26;;;;;;;12.35;7.93;;;;;;;-140.66;100.00;55571.53;5104367;28;20042;-74
2023/07/17 08:45:14;;;;;;;14.00;8.18;;;;;;;-140.66;100.00;55571.53;5117380;28;20023;-74
2023/07/17 08:48:00;;;;;;;14.65;8.50;;;;;;;-140.66;100.00;55571.53;5118403;28;20408;-74
2023/07/17 08:50:47;;;;;;;12.32;8.60;;;;;;;-140.66;100.00;55571.53;5117826;28;20023;-74
2023/07/17 08:53:35;;;;;;;10.60;8.70;;;;;;;-140.66;100.00;55571.53;5116827;28;20027;-74
2023/07/17 08:56:21;;;;;;;27.30;8.93;;;;;;;-140.66;100.00;55571.53;5116089;28;20400;-75
2023/07/17 08:59:07;;;;;;;14.73;8.50;;;;;;;-140.66;100.00;55571.53;5120375;28;20192;-73
2023/07/17 09:01:53;;;;;;;17.25;9.55;;;;;;;-140.66;100.00;55571.53;5118757;28;20443;-73
2023/07/17 09:04:39;;;;;;;10.15;8.27;;;;;;;-140.66;100.00;55571.53;5120084;28;20325;-75
2023/07/17 09:07:24;;;;;;;12.98;8.45;;;;;;;-140.66;100.00;55571.53;5118899;28;20034;-75
2023/07/17 09:10:23;;;;;;;11.45;8.48;;;;;;;-140.66;100.00;55571.53;5119832;28;20092;-74
2023/07/17 09:13:09;;;;;;;19.02;9.35;;;;;;;-140.66;100.00;55571.53;5104624;28;20047;-74
2023/07/17 09:16:20;;;;;;;13.60;8.60;;;;;;;-140.66;100.00;55571.53;5118939;28;20455;-75
2023/07/17 09:19:06;;;;;;;11.57;8.30;;;;;;;-140.66;100.00;55571.53;5118329;28;20043;-74
2023/07/17 09:21:57;;;;;;;15.00;8.85;;;;;;;-140.66;100.00;55571.53;5118536;28;20039;-74
2023/07/17 09:24:43;;;;;;;11.27;8.77;;;;;;;-140.66;100.00;55571.53;5118891;28;20027;-74
2023/07/17 09:27:29;;;;;;;15.13;8.02;;;;;;;-140.66;100.00;55571.53;5117786;28;20024;-73
2023/07/17 09:30:22;;;;;;;14.05;8.93;;;;;;;-140.66;100.00;55571.53;5119492;28;20034;-73
2023/07/17 09:33:08;;;;;;;11.07;8.52;;;;;;;-140.66;100.00;55571.53;5119750;28;20024;-73
2023/07/17 09:35:55;;;;;;;14.10;8.57;;;;;;;-140.66;100.00;55571.53;5116387;28;20106;-75
2023/07/17 09:38:41;;;;;;;12.95;9.00;;;;;;;-140.66;100.00;55571.53;5117674;28;20028;-74
2023/07/17 09:41:28;;;;;;;12.32;7.65;;;;;;;-140.66;100.00;55571.53;5116268;28;20110;-74
2023/07/17 09:44:18;;;;;;;10.68;8.43;;;;;;;-140.66;100.00;55571.53;5114925;28;20019;-74
2023/07/17 09:47:04;;;;;;;11.98;9.05;;;;;;;-140.66;100.00;55571.53;5100353;28;20038;-74
2023/07/17 09:49:54;;;;;;;12.00;9.18;;;;;;;-140.66;100.00;55571.53;5116198;28;20459;-74
2023/07/17 09:52:42;;;;;;;13.55;8.80;;;;;;;-140.66;100.00;55571.53;5115083;28;20031;-74
2023/07/17 09:55:31;;;;;;;11.60;9.15;;;;;;;-140.66;100.00;55571.53;5099930;28;20059;-75
2023/07/17 09:58:21;;;;;;;12.50;9.30;;;;;;;-140.66;100.00;55571.53;5115112;28;20478;-74
2023/07/17 10:01:08;;;;;;;11.85;9.32;;;;;;;-140.66;100.00;55571.53;5098653;28;20024;-74
2023/07/17 10:03:54;;;;;;;17.95;10.00;;;;;;;-140.66;100.00;55571.53;5117740;28;20043;-73
2023/07/17 10:06:43;;;;;;;11.73;9.05;;;;;;;-140.66;100.00;55571.53;5117157;28;20443;-75
2023/07/17 10:09:29;;;;;;;12.25;8.95;;;;;;;-140.66;100.00;55571.53;5102565;28;20035;-74
2023/07/17 10:12:17;;;;;;;11.35;9.13;;;;;;;-140.66;100.00;55571.53;5116541;28;20024;-74
2023/07/17 10:15:03;;;;;;;18.58;9.80;;;;;;;-140.66;100.00;55571.53;5131575;28;20035;-73
2023/07/17 10:17:57;;;;;;;14.68;9.00;;;;;;;-140.66;100.00;55571.53;5128794;28;20023;-74
2023/07/17 10:20:53;;;;;;;11.73;8.75;;;;;;;-140.66;100.00;55571.53;5123647;28;20055;-73
2023/07/17 10:23:42;;;;;;;15.77;8.93;;;;;;;-140.66;100.00;55571.53;5119808;28;20024;-74
2023/07/17 10:26:29;;;;;;;13.50;9.35;;;;;;;-140.66;100.00;55571.53;5115017;28;20027;-75
2023/07/17 10:29:15;;;;;;;13.25;9.13;;;;;;;-140.66;100.00;55571.53;5099962;28;20141;-74
2023/07/17 10:32:08;;;;;;;12.52;9.15;;;;;;;-140.66;100.00;55571.53;5114077;28;20102;-74
2023/07/17 10:34:54;;;;;;;14.43;7.97;;;;;;;-140.66;100.00;55571.53;5115407;28;20032;-73
2023/07/17 10:37:41;;;;;;;13.85;8.48;;;;;;;-140.66;100.00;55571.53;5129278;28;20061;-73
2023/07/17 10:40:27;;;;;;;10.43;8.63;;;;;;;-140.66;100.00;55571.53;5127901;28;20435;-74
2023/07/17 10:43:16;;;;;;;13.63;8.70;;;;;;;-140.66;100.00;55571.53;5121921;28;20028;-74
2023/07/17 10:46:09;;;;;;;14.23;8.60;;;;;;;-140.66;100.00;55571.53;5106490;28;20408;-74
2023/07/17 10:49:05;;;;;;;11.32;8.15;;;;;;;-140.66;100.00;55571.53;5119014;28;20035;-75
2023/07/17 10:51:50;;;;;;;9.57;7.30;;;;;;;-140.66;100.00;55571.53;5117525;28;20352;-74
2023/07/17 10:54:36;;;;;;;8.30;7.22;;;;;;;-140.66;100.00;55571.53;5119465;28;20032;-75
2023/07/17 10:57:22;;;;;;;11.00;8.07;;;;;;;-140.66;100.00;55571.53;5119880;28;20047;-76
2023/07/17 11:00:10;;;;;;;10.73;7.38;;;;;;;-140.66;100.00;55571.53;5118591;28;20035;-76
2023/07/17 11:02:56;;;;;;;11.73;7.85;;;;;;;-140.66;100.00;55571.53;5122225;28;20035;-75
2023/07/17 11:05:43;;;;;;;12.02;7.95;;;;;;;-140.66;100.00;55571.53;5093978;28;20035;-74
2023/07/17 11:08:29;;;;;;;8.70;7.30;;;;;;;-140.66;100.00;55571.53;5120230;28;20019;-75
2023/07/17 11:11:16;;;;;;;12.20;7.22;;;;;;;-140.66;100.00;55571.53;5122234;28;20081;-74
2023/07/17 11:14:03;;;;;;;12.68;7.10;;;;;;;-140.66;100.00;55571.53;5126358;28;20024;-75
2023/07/17 11:16:52;;;;;;;18.80;7.28;;;;;;;-140.66;100.00;55571.53;5126962;28;20058;-74
2023/07/17 11:19:37;;;;;;;8.52;7.60;;;;;;;-140.66;100.00;55571.53;5111070;28;20019;-74
2023/07/17 11:22:32;;;;;;;10.35;7.57;;;;;;;-140.66;100.00;55571.53;5124382;28;20455;-74
2023/07/17 11:25:19;;;;;;;9.05;7.82;;;;;;;-140.66;100.00;55571.53;5127615;28;20024;-73
2023/07/17 11:28:04;;;;;;;16.33;7.70;;;;;;;-140.66;100.00;55571.53;5125186;28;20066;-74
2023/07/17 11:30:50;;;;;;;10.48;7.38;;;;;;;-140.66;100.00;55571.53;5122195;28;20473;-74
2023/07/17 11:33:36;;;;;;;10.50;6.80;;;;;;;-140.66;100.00;55571.53;5122523;28;20038;-74
2023/07/17 11:36:22;;;;;;;7.47;6.68;;;;;;;-140.66;100.00;55571.53;5124083;28;20042;-74
2023/07/17 11:39:12;;;;;;;10.45;6.45;;;;;;;-140.66;100.00;55571.53;5127137;28;20020;-74
2023/07/17 11:41:59;;;;;;;11.43;7.03;;;;;;;-140.66;100.00;55571.53;5108666;28;20439;-75
2023/07/17 11:44:44;;;;;;;9.80;6.65;;;;;;;-140.66;100.00;55571.53;5107339;28;20023;-74
2023/07/17 11:47:30;;;;;;;9.93;7.30;;;;;;;-140.66;100.00;55571.53;5121603;28;20030;-74
2023/07/17 11:50:34;;;;;;;9.65;7.10;;;;;;;-140.66;100.00;55571.53;5121825;28;20035;-73
2023/07/17 11:53:20;;;;;;;11.70;6.60;;;;;;;-140.66;100.00;55571.53;5110091;28;20451;-74
2023/07/17 11:56:06;;;;;;;9.02;7.03;;;;;;;-140.66;100.00;55571.53;5107814;28;20030;-75
2023/07/17 11:58:52;;;;;;;8.05;7.15;;;;;;;-140.66;100.00;55571.53;5119323;28;20035;-73
2023/07/17 12:01:40;;;;;;;9.18;7.57;;;;;;;-140.66;100.00;55571.53;5121684;28;20098;-74
2023/07/17 12:04:27;;;;;;;9.32;7.40;;;;;;;-140.66;100.00;55571.53;5107724;28;20028;-76
2023/07/17 12:07:19;;;;;;;8.52;7.55;;;;;;;-140.66;100.00;55571.53;5111689;28;20051;-73
2023/07/17 12:10:06;;;;;;;11.25;7.80;;;;;;;-140.66;100.00;55571.53;5128716;28;20031;-74
2023/07/17 12:12:51;;;;;;;11.32;7.75;;;;;;;-140.66;100.00;55571.53;5127947;28;20053;-74
2023/07/17 12:15:37;;;;;;;11.55;7.18;;;;;;;-140.66;100.00;55571.53;5125439;28;20386;-75
2023/07/17 12:18:23;;;;;;;10.25;7.68;;;;;;;-140.66;100.00;55571.53;5123891;28;20026;-75
2023/07/17 12:21:09;;;;;;;13.52;7.25;;;;;;;-140.66;100.00;55571.53;5120457;28;20101;-75
2023/07/17 12:23:54;;;;;;;9.40;6.97;;;;;;;-140.66;100.00;55571.53;5105042;28;20027;-75
2023/07/17 12:26:40;;;;;;;9.15;7.78;;;;;;;-140.66;100.00;55571.53;5123864;28;20037;-74
2023/07/17 12:29:27;;;;;;;13.65;7.40;;;;;;;-140.66;100.00;55571.53;5122732;28;20065;-74
2023/07/17 12:32:12;;;;;;;12.07;7.10;;;;;;;-140.66;100.00;55571.53;5126903;28;20035;-75
2023/07/17 12:34:58;;;;;;;10.93;6.97;;;;;;;-140.66;100.00;55571.53;5110303;28;20024;-75